createdAt,value
2022-08-20T00:02:15.689Z,56.58
2022-08-20T00:04:44.733Z,56.04
2022-08-20T00:07:15.709Z,57.41
2022-08-20T00:09:44.473Z,58.91
2022-08-20T00:12:16.143Z,60.31
2022-08-20T00:14:43.935Z,61.50
2022-08-20T00:17:11.732Z,64.15
2022-08-20T00:19:39.615Z,62.77
2022-08-20T00:22:07.702Z,57.97
2022-08-20T00:24:35.552Z,56.90
2022-08-20T00:27:03.606Z,58.02
2022-08-20T00:29:31.739Z,59.35
2022-08-20T00:31:59.667Z,60.66
2022-08-20T00:34:28.021Z,61.78
2022-08-20T00:36:55.897Z,64.63
2022-08-20T00:39:23.857Z,62.55
2022-08-20T00:41:52.197Z,57.68
2022-08-20T00:44:22.602Z,56.83
2022-08-20T00:46:52.295Z,58.04
2022-08-20T00:49:28.101Z,59.46
2022-08-20T00:52:05.980Z,60.78
2022-08-20T00:54:59.076Z,62.03
2022-08-20T00:57:54.769Z,65.09
2022-08-20T01:00:34.062Z,61.83
2022-08-20T01:03:01.891Z,57.12
2022-08-20T01:05:30.434Z,56.62
2022-08-20T01:07:58.676Z,57.80
2022-08-20T01:10:29.842Z,59.20
2022-08-20T01:12:59.667Z,60.58
2022-08-20T01:15:31.903Z,61.95
2022-08-20T01:18:02.399Z,64.84
2022-08-20T01:20:43.153Z,62.04
2022-08-20T01:23:42.015Z,57.34
2022-08-20T01:26:23.539Z,57.32
2022-08-20T01:28:58.859Z,58.81
2022-08-20T01:31:30.018Z,60.28
2022-08-20T01:34:00.216Z,61.54
2022-08-20T01:36:34.354Z,64.65
2022-08-20T01:39:05.633Z,62.25
2022-08-20T01:41:51.511Z,56.88
2022-08-20T01:44:21.255Z,56.42
2022-08-20T01:46:51.549Z,57.92
2022-08-20T01:49:24.843Z,59.43
2022-08-20T01:51:57.486Z,60.86
2022-08-20T01:54:25.972Z,63.78
2022-08-20T01:57:06.654Z,61.77
2022-08-20T01:59:34.546Z,57.06
2022-08-20T02:02:02.761Z,56.93
2022-08-20T02:04:31.379Z,58.29
2022-08-20T02:07:02.396Z,59.72
2022-08-20T02:09:37.653Z,61.16
2022-08-20T02:12:08.827Z,64.08
2022-08-20T02:14:42.376Z,62.14
2022-08-20T02:17:11.825Z,57.46
2022-08-20T02:19:43.961Z,57.06
2022-08-20T02:22:38.087Z,58.38
2022-08-20T02:25:09.111Z,60.02
2022-08-20T02:27:39.502Z,61.46
2022-08-20T02:30:12.136Z,64.18
2022-08-20T02:32:57.793Z,62.32
2022-08-20T02:35:26.671Z,57.53
2022-08-20T02:37:55.276Z,57.07
2022-08-20T02:40:30.869Z,58.46
2022-08-20T02:43:01.637Z,59.58
2022-08-20T02:45:31.531Z,61.33
2022-08-20T02:47:59.494Z,64.18
2022-08-20T02:50:28.554Z,62.85
2022-08-20T02:52:56.607Z,57.86
2022-08-20T02:55:27.312Z,56.83
2022-08-20T02:57:59.333Z,58.12
2022-08-20T03:00:37.787Z,59.42
2022-08-20T03:03:11.522Z,60.70
2022-08-20T03:05:41.727Z,63.97
2022-08-20T03:08:12.371Z,62.30
2022-08-20T03:10:42.237Z,57.89
2022-08-20T03:13:13.482Z,57.39
2022-08-20T03:15:44.365Z,58.69
2022-08-20T03:18:13.203Z,59.75
2022-08-20T03:20:42.138Z,61.47
2022-08-20T03:23:10.673Z,64.48
2022-08-20T03:25:38.409Z,62.91
2022-08-20T03:28:06.760Z,57.52
2022-08-20T03:30:34.655Z,56.84
2022-08-20T03:33:02.716Z,58.30
2022-08-20T03:35:32.351Z,59.97
2022-08-20T03:38:00.433Z,61.32
2022-08-20T03:40:31.340Z,64.55
2022-08-20T03:42:59.688Z,62.30
2022-08-20T03:45:28.398Z,57.80
2022-08-20T03:47:56.618Z,57.30
2022-08-20T03:50:29.051Z,58.40
2022-08-20T03:52:58.406Z,59.69
2022-08-20T03:55:28.052Z,61.13
2022-08-20T03:57:59.168Z,64.05
2022-08-20T04:00:33.547Z,62.91
2022-08-20T04:03:01.402Z,60.28
2022-08-20T04:05:31.305Z,56.41
2022-08-20T04:08:03.092Z,56.16
2022-08-20T04:10:32.214Z,57.33
2022-08-20T04:13:01.649Z,58.83
2022-08-20T04:15:29.659Z,60.18
2022-08-20T04:17:59.611Z,63.56
2022-08-20T04:20:27.683Z,62.73
2022-08-20T04:22:59.063Z,57.83
2022-08-20T04:25:29.564Z,56.98
2022-08-20T04:27:59.153Z,58.21
2022-08-20T04:30:28.025Z,60.09
2022-08-20T04:32:56.391Z,61.65
2022-08-20T04:35:24.716Z,64.74
2022-08-20T04:38:23.119Z,63.13
2022-08-20T04:40:54.321Z,57.83
2022-08-20T04:43:27.667Z,57.46
2022-08-20T04:45:59.073Z,58.91
2022-08-20T04:48:28.970Z,60.41
2022-08-20T04:50:57.773Z,61.93
2022-08-20T04:53:28.188Z,65.20
2022-08-20T04:55:58.737Z,63.39
2022-08-20T04:58:38.527Z,58.82
2022-08-20T05:01:09.655Z,57.75
2022-08-20T05:03:39.845Z,59.17
2022-08-20T05:06:09.876Z,60.75
2022-08-20T05:08:38.834Z,63.68
2022-08-20T05:11:33.208Z,62.46
2022-08-20T05:13:57.417Z,57.31
2022-08-20T05:16:25.316Z,57.27
2022-08-20T05:18:53.166Z,58.65
2022-08-20T05:21:21.298Z,60.12
2022-08-20T05:23:49.590Z,61.78
2022-08-20T05:26:20.200Z,64.68
2022-08-20T05:28:54.328Z,62.79
2022-08-20T05:31:31.417Z,58.04
2022-08-20T05:34:10.735Z,57.54
2022-08-20T05:36:49.365Z,58.73
2022-08-20T05:39:22.205Z,60.21
2022-08-20T05:41:51.007Z,61.58
2022-08-20T05:44:19.561Z,64.46
2022-08-20T05:46:48.523Z,62.98
2022-08-20T05:49:20.108Z,58.53
2022-08-20T05:51:51.034Z,57.80
2022-08-20T05:54:19.437Z,59.05
2022-08-20T05:56:47.261Z,60.42
2022-08-20T05:59:15.008Z,61.57
2022-08-20T06:01:43.256Z,64.14
2022-08-20T06:04:32.153Z,62.60
2022-08-20T06:07:06.102Z,58.13
2022-08-20T06:09:36.329Z,57.38
2022-08-20T06:12:06.698Z,58.73
2022-08-20T06:14:35.448Z,60.31
2022-08-20T06:17:15.497Z,61.34
2022-08-20T06:19:45.881Z,64.13
2022-08-20T06:22:18.717Z,62.14
2022-08-20T06:24:52.077Z,57.27
2022-08-20T06:27:20.892Z,56.96
2022-08-20T06:29:50.978Z,57.86
2022-08-20T06:32:31.648Z,59.15
2022-08-20T06:35:06.395Z,60.42
2022-08-20T06:37:37.515Z,63.18
2022-08-20T06:40:14.968Z,62.15
2022-08-20T06:42:48.537Z,58.07
2022-08-20T06:45:26.126Z,57.35
2022-08-20T06:47:58.159Z,58.30
2022-08-20T06:50:32.686Z,60.22
2022-08-20T06:53:00.830Z,61.52
2022-08-20T06:55:29.082Z,63.02
2022-08-20T06:58:05.439Z,61.84
2022-08-20T07:00:36.440Z,58.09
2022-08-20T07:03:05.021Z,57.60
2022-08-20T07:05:37.152Z,58.67
2022-08-20T07:08:05.570Z,59.75
2022-08-20T07:10:33.423Z,61.15
2022-08-20T07:13:01.303Z,63.52
2022-08-20T07:15:30.336Z,61.94
2022-08-20T07:18:01.934Z,58.41
2022-08-20T07:20:33.082Z,57.64
2022-08-20T07:23:01.607Z,58.62
2022-08-20T07:25:31.861Z,60.09
2022-08-20T07:28:02.755Z,60.99
2022-08-20T07:30:56.768Z,63.00
2022-08-20T07:33:30.419Z,61.82
2022-08-20T07:35:59.455Z,57.49
2022-08-20T07:38:30.217Z,56.41
2022-08-20T07:41:01.843Z,57.76
2022-08-20T07:43:32.384Z,58.82
2022-08-20T07:46:02.246Z,60.08
2022-08-20T07:48:31.945Z,61.04
2022-08-20T07:51:05.769Z,63.86
2022-08-20T07:53:36.231Z,62.19
2022-08-20T07:56:10.305Z,58.04
2022-08-20T07:58:43.763Z,57.10
2022-08-20T08:01:11.862Z,58.27
2022-08-20T08:03:49.264Z,59.23
2022-08-20T08:06:30.018Z,60.38
2022-08-20T08:09:06.921Z,61.32
2022-08-20T08:11:38.296Z,63.72
2022-08-20T08:14:09.817Z,59.04
2022-08-20T08:16:38.605Z,57.20
2022-08-20T08:19:09.877Z,57.25
2022-08-20T08:21:37.818Z,58.69
2022-08-20T08:24:05.838Z,59.80
2022-08-20T08:26:33.605Z,60.13
2022-08-20T08:29:02.666Z,60.33
2022-08-20T08:31:30.451Z,61.55
2022-08-20T08:33:58.691Z,62.82
2022-08-20T08:36:27.498Z,61.49
2022-08-20T08:38:56.734Z,56.74
2022-08-20T08:41:32.327Z,56.23
2022-08-20T08:44:21.400Z,57.32
2022-08-20T08:47:04.089Z,57.58
2022-08-20T08:49:37.965Z,58.60
2022-08-20T08:52:14.721Z,59.91
2022-08-20T08:54:47.511Z,60.65
2022-08-20T08:57:16.776Z,61.03
2022-08-20T09:00:04.452Z,61.34
2022-08-20T09:02:35.378Z,62.16
2022-08-20T09:05:13.498Z,62.66
2022-08-20T09:07:45.694Z,59.04
2022-08-20T09:10:13.742Z,56.80
2022-08-20T09:12:47.095Z,57.44
2022-08-20T09:15:16.793Z,58.81
2022-08-20T09:17:44.566Z,58.88
2022-08-20T09:20:12.745Z,59.85
2022-08-20T09:22:41.428Z,60.79
2022-08-20T09:25:09.639Z,61.33
2022-08-20T09:27:37.672Z,61.75
2022-08-20T09:30:10.103Z,63.79
2022-08-20T09:32:37.915Z,60.83
2022-08-20T09:35:09.356Z,54.57
2022-08-20T09:37:38.104Z,53.71
2022-08-20T09:40:08.762Z,55.06
2022-08-20T09:42:41.251Z,55.76
2022-08-20T09:45:11.010Z,56.67
2022-08-20T09:47:55.385Z,57.60
2022-08-20T09:50:31.677Z,58.57
2022-08-20T09:53:01.651Z,59.24
2022-08-20T09:55:38.916Z,60.18
2022-08-20T09:58:38.297Z,60.85
2022-08-20T10:01:15.124Z,63.41
2022-08-20T10:03:44.579Z,61.11
2022-08-20T10:06:14.887Z,55.68
2022-08-20T10:08:43.749Z,53.93
2022-08-20T10:11:11.512Z,54.36
2022-08-20T10:13:39.336Z,55.15
2022-08-20T10:16:07.317Z,56.14
2022-08-20T10:18:36.601Z,57.30
2022-08-20T10:21:10.782Z,58.04
2022-08-20T10:23:38.678Z,58.93
2022-08-20T10:26:11.354Z,59.82
2022-08-20T10:28:39.747Z,60.59
2022-08-20T10:31:09.866Z,60.75
2022-08-20T10:33:39.480Z,61.77
2022-08-20T10:36:17.190Z,61.86
2022-08-20T10:38:45.513Z,64.54
2022-08-20T10:41:13.254Z,61.72
2022-08-20T10:43:41.139Z,56.58
2022-08-20T10:46:09.319Z,54.77
2022-08-20T10:48:37.540Z,55.05
2022-08-20T10:51:06.003Z,55.45
2022-08-20T10:53:34.630Z,56.29
2022-08-20T10:56:02.538Z,56.99
2022-08-20T10:58:39.233Z,57.51
2022-08-20T11:01:08.169Z,57.99
2022-08-20T11:03:36.236Z,58.69
2022-08-20T11:06:04.590Z,59.16
2022-08-20T11:08:34.309Z,59.65
2022-08-20T11:11:05.910Z,59.83
2022-08-20T11:13:34.905Z,60.48
2022-08-20T11:16:04.076Z,60.85
2022-08-20T11:18:33.068Z,61.34
2022-08-20T11:21:01.560Z,61.63
2022-08-20T11:23:30.615Z,61.99
2022-08-20T11:25:58.680Z,62.16
2022-08-20T11:28:31.780Z,63.94
2022-08-20T11:31:01.830Z,60.66
2022-08-20T11:33:29.825Z,55.40
2022-08-20T11:35:57.712Z,54.93
2022-08-20T11:38:26.261Z,55.22
2022-08-20T11:40:54.128Z,55.79
2022-08-20T11:43:21.989Z,56.91
2022-08-20T11:45:54.543Z,57.45
2022-08-20T11:48:22.701Z,58.30
2022-08-20T11:50:50.645Z,58.84
2022-08-20T11:53:18.746Z,59.11
2022-08-20T11:55:47.909Z,59.84
2022-08-20T11:58:16.068Z,60.33
2022-08-20T12:00:44.202Z,60.73
2022-08-20T12:03:12.319Z,61.07
2022-08-20T12:05:43.315Z,61.19
2022-08-20T12:08:25.327Z,61.17
2022-08-20T12:10:58.411Z,61.52
2022-08-20T12:13:43.940Z,61.59
2022-08-20T12:16:19.497Z,61.79
2022-08-20T12:18:48.424Z,61.91
2022-08-20T12:21:16.938Z,61.80
2022-08-20T12:23:45.256Z,64.48
2022-08-20T12:26:14.164Z,58.68
2022-08-20T12:28:42.361Z,55.16
2022-08-20T12:31:10.212Z,55.50
2022-08-20T12:33:38.116Z,56.07
2022-08-20T12:36:06.225Z,56.67
2022-08-20T12:38:34.108Z,57.00
2022-08-20T12:41:02.676Z,57.72
2022-08-20T12:43:30.406Z,58.02
2022-08-20T12:45:58.190Z,58.27
2022-08-20T12:48:26.175Z,57.83
2022-08-20T12:50:54.072Z,58.03
2022-08-20T12:53:22.085Z,58.36
2022-08-20T12:55:50.034Z,58.34
2022-08-20T12:58:17.898Z,58.34
2022-08-20T13:00:50.813Z,58.18
2022-08-20T13:03:20.940Z,58.33
2022-08-20T13:05:49.863Z,58.79
2022-08-20T13:08:19.581Z,58.89
2022-08-20T13:10:47.971Z,59.22
2022-08-20T13:13:20.507Z,59.51
2022-08-20T13:15:50.998Z,59.65
2022-08-20T13:18:19.866Z,59.71
2022-08-20T13:20:48.296Z,59.93
2022-08-20T13:23:16.922Z,59.98
2022-08-20T13:25:44.668Z,60.32
2022-08-20T13:28:12.483Z,60.43
2022-08-20T13:30:41.527Z,60.61
2022-08-20T13:33:09.601Z,60.63
2022-08-20T13:35:37.840Z,60.96
2022-08-20T13:38:06.013Z,61.27
2022-08-20T13:40:33.973Z,61.44
2022-08-20T13:43:06.461Z,61.60
2022-08-20T13:45:37.321Z,61.98
2022-08-20T13:48:09.905Z,64.20
2022-08-20T13:50:47.172Z,62.17
2022-08-20T13:53:16.574Z,56.41
2022-08-20T13:55:44.965Z,53.92
2022-08-20T13:58:13.260Z,54.25
2022-08-20T14:00:41.858Z,54.02
2022-08-20T14:03:09.894Z,55.02
2022-08-20T14:05:38.804Z,55.17
2022-08-20T14:08:09.959Z,56.27
2022-08-20T14:10:38.747Z,56.50
2022-08-20T14:13:07.067Z,56.88
2022-08-20T14:15:36.269Z,57.15
2022-08-20T14:18:04.606Z,57.00
2022-08-20T14:20:34.685Z,57.46
2022-08-20T14:23:06.931Z,57.53
2022-08-20T14:25:35.234Z,58.07
2022-08-20T14:28:11.878Z,58.09
2022-08-20T14:30:40.073Z,58.53
2022-08-20T14:33:08.977Z,58.66
2022-08-20T14:35:37.040Z,58.83
2022-08-20T14:38:05.459Z,59.14
2022-08-20T14:40:34.387Z,59.57
2022-08-20T14:43:03.319Z,59.82
2022-08-20T14:45:31.079Z,60.35
2022-08-20T14:47:59.804Z,60.62
2022-08-20T14:50:33.975Z,60.97
2022-08-20T14:53:02.669Z,61.10
2022-08-20T14:55:33.554Z,61.37
2022-08-20T14:58:01.851Z,61.48
2022-08-20T15:00:31.085Z,61.66
2022-08-20T15:02:58.999Z,61.87
2022-08-20T15:05:27.568Z,62.08
2022-08-20T15:07:59.381Z,62.52
2022-08-20T15:10:31.251Z,62.18
2022-08-20T15:12:59.718Z,56.94
2022-08-20T15:15:28.059Z,56.60
2022-08-20T15:18:00.361Z,57.46
2022-08-20T15:20:31.469Z,58.37
2022-08-20T15:23:00.955Z,59.82
2022-08-20T15:25:36.062Z,60.79
2022-08-20T15:28:08.814Z,61.41
2022-08-20T15:30:40.470Z,62.22
2022-08-20T15:33:10.274Z,58.25
2022-08-20T15:35:38.420Z,57.12
2022-08-20T15:38:06.229Z,58.60
2022-08-20T15:40:34.499Z,59.51
2022-08-20T15:43:04.936Z,60.19
2022-08-20T15:45:34.423Z,61.13
2022-08-20T15:48:21.495Z,61.49
2022-08-20T15:51:03.689Z,63.88
2022-08-20T15:53:58.306Z,64.16
2022-08-20T15:56:36.427Z,58.12
2022-08-20T15:59:19.104Z,58.57
2022-08-20T16:02:05.391Z,60.29
2022-08-20T16:04:52.125Z,63.78
2022-08-20T16:07:28.839Z,61.13
2022-08-20T16:10:15.876Z,55.95
2022-08-20T16:12:49.937Z,56.62
2022-08-20T16:15:28.844Z,59.64
2022-08-20T16:18:21.210Z,61.80
2022-08-20T16:20:52.869Z,63.16
2022-08-20T16:23:31.425Z,60.58
2022-08-20T16:26:26.546Z,55.89
2022-08-20T16:29:10.013Z,57.64
2022-08-20T16:32:01.561Z,60.16
2022-08-20T16:34:41.645Z,64.41
2022-08-20T16:37:25.465Z,62.22
2022-08-20T16:40:21.721Z,57.52
2022-08-20T16:42:51.877Z,57.56
2022-08-20T16:45:26.825Z,59.51
2022-08-20T16:48:01.090Z,63.10
2022-08-20T16:50:39.367Z,62.23
2022-08-20T16:53:17.906Z,57.90
2022-08-20T16:55:46.104Z,57.71
2022-08-20T16:58:14.423Z,59.52
2022-08-20T17:00:45.213Z,61.60
2022-08-20T17:03:33.576Z,65.96
2022-08-20T17:06:19.507Z,63.04
2022-08-20T17:08:50.458Z,58.16
2022-08-20T17:11:32.665Z,57.59
2022-08-20T17:14:17.453Z,59.28
2022-08-20T17:16:48.967Z,61.67
2022-08-20T17:19:28.756Z,65.06
2022-08-20T17:22:09.083Z,62.29
2022-08-20T17:24:38.642Z,57.98
2022-08-20T17:27:13.421Z,58.33
2022-08-20T17:29:54.093Z,60.24
2022-08-20T17:32:28.015Z,62.94
2022-08-20T17:34:58.876Z,61.08
2022-08-20T17:37:33.795Z,57.68
2022-08-20T17:40:30.293Z,59.08
2022-08-20T17:43:06.056Z,60.63
2022-08-20T17:45:44.803Z,64.50
2022-08-20T17:48:20.213Z,62.06
2022-08-20T17:50:50.083Z,57.94
2022-08-20T17:53:23.442Z,57.91
2022-08-20T17:56:02.781Z,60.15
2022-08-20T17:58:54.593Z,61.72
2022-08-20T18:01:26.000Z,64.83
2022-08-20T18:03:54.616Z,62.52
2022-08-20T18:06:48.516Z,58.30
2022-08-20T18:09:38.361Z,58.05
2022-08-20T18:12:34.671Z,60.10
2022-08-20T18:15:24.659Z,63.72
2022-08-20T18:18:24.695Z,62.17
2022-08-20T18:21:11.275Z,57.36
2022-08-20T18:23:47.999Z,57.29
2022-08-20T18:26:31.856Z,59.35
2022-08-20T18:29:09.740Z,61.48
2022-08-20T18:31:49.650Z,64.87
2022-08-20T18:34:34.061Z,64.00
2022-08-20T18:37:21.409Z,58.89
2022-08-20T18:39:51.479Z,58.08
2022-08-20T18:42:27.457Z,60.48
2022-08-20T18:44:57.066Z,63.20
2022-08-20T18:47:28.054Z,61.79
2022-08-20T18:50:05.464Z,57.96
2022-08-20T18:52:39.458Z,57.85
2022-08-20T18:55:15.826Z,60.54
2022-08-20T18:57:58.023Z,63.17
2022-08-20T19:00:52.319Z,60.41
2022-08-20T19:03:23.808Z,56.93
2022-08-20T19:06:02.910Z,58.50
2022-08-20T19:08:43.220Z,60.46
2022-08-20T19:11:15.394Z,63.38
2022-08-20T19:14:11.232Z,61.29
2022-08-20T19:17:11.764Z,57.73
2022-08-20T19:19:39.602Z,58.66
2022-08-20T19:22:07.978Z,61.70
2022-08-20T19:24:39.611Z,62.23
2022-08-20T19:27:12.072Z,60.11
2022-08-20T19:29:42.883Z,56.15
2022-08-20T19:32:21.806Z,56.50
2022-08-20T19:35:02.078Z,58.07
2022-08-20T19:37:44.334Z,60.79
2022-08-20T19:40:24.872Z,64.20
2022-08-20T19:42:59.693Z,62.05
2022-08-20T19:45:40.017Z,57.34
2022-08-20T19:49:05.637Z,57.13
2022-08-20T19:51:53.875Z,59.80
2022-08-20T19:54:25.037Z,62.47
2022-08-20T19:57:04.554Z,64.40
2022-08-20T19:59:32.613Z,61.70
2022-08-20T20:02:04.085Z,57.57
2022-08-20T20:04:54.882Z,57.71
2022-08-20T20:07:28.261Z,59.68
2022-08-20T20:09:58.430Z,63.99
2022-08-20T20:12:26.301Z,62.35
2022-08-20T20:14:55.287Z,57.29
2022-08-20T20:17:29.984Z,57.38
2022-08-20T20:20:19.016Z,59.11
2022-08-20T20:22:57.564Z,63.01
2022-08-20T20:25:33.910Z,64.53
2022-08-20T20:28:17.766Z,61.06
2022-08-20T20:30:46.095Z,56.57
2022-08-20T20:33:22.356Z,56.54
2022-08-20T20:36:09.424Z,58.57
2022-08-20T20:38:41.161Z,60.28
2022-08-20T20:41:21.271Z,63.62
2022-08-20T20:43:59.743Z,61.46
2022-08-20T20:46:29.189Z,57.97
2022-08-20T20:49:09.525Z,57.81
2022-08-20T20:51:41.356Z,60.14
2022-08-20T20:54:27.058Z,63.01
2022-08-20T20:57:02.806Z,61.72
2022-08-20T20:59:32.720Z,58.08
2022-08-20T21:02:01.105Z,58.29
2022-08-20T21:04:29.186Z,59.93
2022-08-20T21:06:59.237Z,61.86
2022-08-20T21:09:27.013Z,64.46
2022-08-20T21:11:54.861Z,62.04
2022-08-20T21:14:22.816Z,58.70
2022-08-20T21:16:50.698Z,58.29
2022-08-20T21:19:18.750Z,59.97
2022-08-20T21:21:46.590Z,61.53
2022-08-20T21:24:14.477Z,65.37
2022-08-20T21:26:42.726Z,62.46
2022-08-20T21:29:13.660Z,59.48
2022-08-20T21:31:44.787Z,56.08
2022-08-20T21:34:15.736Z,57.68
2022-08-20T21:36:44.182Z,59.48
2022-08-20T21:39:12.552Z,60.98
2022-08-20T21:41:42.733Z,64.72
2022-08-20T21:44:29.711Z,63.01
2022-08-20T21:46:58.951Z,58.78
2022-08-20T21:49:29.192Z,58.14
2022-08-20T21:51:58.275Z,59.72
2022-08-20T21:54:26.820Z,61.69
2022-08-20T21:57:13.117Z,65.30
2022-08-20T21:59:42.231Z,62.43
2022-08-20T22:02:10.210Z,58.81
2022-08-20T22:04:38.276Z,58.38
2022-08-20T22:07:06.423Z,60.16
2022-08-20T22:09:36.259Z,61.56
2022-08-20T22:12:07.187Z,64.25
2022-08-20T22:14:34.986Z,62.91
2022-08-20T22:17:02.880Z,58.68
2022-08-20T22:19:30.750Z,58.57
2022-08-20T22:21:58.700Z,61.18
2022-08-20T22:24:29.210Z,63.43
2022-08-20T22:26:57.630Z,63.23
2022-08-20T22:29:25.685Z,58.84
2022-08-20T22:31:53.946Z,56.48
2022-08-20T22:34:22.375Z,58.08
2022-08-20T22:36:54.374Z,61.07
2022-08-20T22:39:22.395Z,63.74
2022-08-20T22:41:50.623Z,61.97
2022-08-20T22:44:18.689Z,58.24
2022-08-20T22:46:50.508Z,58.58
2022-08-20T22:49:24.052Z,60.34
2022-08-20T22:51:52.754Z,63.13
2022-08-20T22:54:23.264Z,63.68
2022-08-20T22:56:52.993Z,60.78
2022-08-20T22:59:22.785Z,56.36
2022-08-20T23:01:52.298Z,56.27
2022-08-20T23:04:26.555Z,57.90
2022-08-20T23:06:55.406Z,59.85
2022-08-20T23:09:23.782Z,61.42
2022-08-20T23:11:53.139Z,65.54
2022-08-20T23:14:21.586Z,63.38
2022-08-20T23:16:58.786Z,58.82
2022-08-20T23:19:27.481Z,58.63
2022-08-20T23:21:55.484Z,60.12
2022-08-20T23:24:23.509Z,61.81
2022-08-20T23:26:53.073Z,64.02
2022-08-20T23:29:25.885Z,61.06
2022-08-20T23:31:57.874Z,57.34
2022-08-20T23:34:27.190Z,57.12
2022-08-20T23:36:57.356Z,58.73
2022-08-20T23:39:26.284Z,61.83
2022-08-20T23:41:55.343Z,62.95
2022-08-20T23:44:25.103Z,58.57
2022-08-20T23:46:58.542Z,56.97
2022-08-20T23:49:27.994Z,58.34
2022-08-20T23:51:56.051Z,61.22
2022-08-20T23:54:23.948Z,63.00
2022-08-20T23:56:51.835Z,61.56
2022-08-20T23:59:25.844Z,57.19
